createdAt,value
2023-02-18T00:02:45.299Z,5.53
2023-02-18T00:07:47.729Z,1.90
2023-02-18T00:12:51.178Z,3.20
2023-02-18T00:17:53.572Z,2.90
2023-02-18T00:22:56.090Z,3.00
2023-02-18T00:27:58.431Z,2.87
2023-02-18T00:33:00.828Z,2.37
2023-02-18T00:38:03.226Z,2.97
2023-02-18T00:43:06.186Z,2.50
2023-02-18T00:48:08.536Z,2.47
2023-02-18T00:53:11.228Z,2.70
2023-02-18T00:58:14.569Z,2.73
2023-02-18T01:03:17.459Z,2.33
2023-02-18T01:08:21.117Z,2.73
2023-02-18T01:13:26.304Z,2.73
2023-02-18T01:18:28.843Z,2.90
2023-02-18T01:23:31.651Z,2.63
2023-02-18T01:28:34.364Z,2.50
2023-02-18T01:33:37.169Z,2.60
2023-02-18T01:38:39.886Z,3.00
2023-02-18T01:43:42.592Z,2.37
2023-02-18T01:48:53.764Z,2.47
2023-02-18T01:54:01.952Z,2.87
2023-02-18T01:59:11.744Z,2.80
2023-02-18T02:04:14.430Z,2.50
2023-02-18T02:09:19.598Z,3.60
2023-02-18T02:14:36.576Z,3.43
2023-02-18T02:19:51.210Z,2.60
2023-02-18T02:24:59.217Z,3.30
2023-02-18T02:30:33.559Z,2.90
2023-02-18T02:36:00.963Z,3.43
2023-02-18T02:41:17.329Z,2.40
2023-02-18T02:46:44.163Z,3.20
2023-02-18T02:51:56.989Z,3.43
2023-02-18T02:57:09.601Z,3.60
2023-02-18T03:02:49.884Z,4.63
2023-02-18T03:08:04.835Z,3.20
2023-02-18T03:13:33.939Z,2.83
2023-02-18T03:18:51.768Z,2.30
2023-02-18T03:24:00.379Z,3.43
2023-02-18T03:29:07.474Z,3.13
2023-02-18T03:34:20.131Z,3.77
2023-02-18T03:39:25.604Z,3.13
2023-02-18T03:44:28.050Z,2.70
2023-02-18T03:49:30.836Z,2.57
2023-02-18T03:54:35.026Z,2.60
2023-02-18T03:59:37.546Z,3.13
2023-02-18T04:04:40.078Z,2.67
2023-02-18T04:09:42.529Z,2.57
2023-02-18T04:14:45.068Z,2.10
2023-02-18T04:19:47.486Z,2.50
2023-02-18T04:24:49.846Z,2.37
2023-02-18T04:29:52.730Z,2.10
2023-02-18T04:34:55.110Z,2.70
2023-02-18T04:39:57.497Z,2.07
2023-02-18T04:44:59.900Z,2.83
2023-02-18T04:50:02.696Z,2.53
2023-02-18T04:55:05.436Z,3.33
2023-02-18T05:00:09.632Z,3.33
2023-02-18T05:05:12.746Z,2.40
2023-02-18T05:10:18.362Z,2.47
2023-02-18T05:15:20.803Z,2.30
2023-02-18T05:20:23.182Z,3.20
2023-02-18T05:25:25.702Z,2.37
2023-02-18T05:30:28.155Z,2.17
2023-02-18T05:35:30.585Z,2.90
2023-02-18T05:40:32.947Z,2.47
2023-02-18T05:45:35.686Z,2.77
2023-02-18T05:50:38.352Z,2.80
2023-02-18T05:55:40.809Z,2.90
2023-02-18T06:00:43.320Z,3.30
2023-02-18T06:05:45.710Z,4.83
2023-02-18T06:10:48.182Z,2.90
2023-02-18T06:15:51.962Z,24.83
2023-02-18T06:20:54.554Z,7.83
2023-02-18T06:25:56.932Z,3.77
2023-02-18T06:30:59.458Z,3.10
2023-02-18T06:36:09.644Z,2.77
2023-02-18T06:41:14.009Z,2.93
2023-02-18T06:46:16.441Z,6.00
2023-02-18T06:51:19.893Z,3.17
2023-02-18T06:56:22.282Z,4.47
2023-02-18T07:01:24.708Z,3.80
2023-02-18T07:06:27.030Z,3.83
2023-02-18T07:11:29.428Z,4.93
2023-02-18T07:16:31.861Z,5.87
2023-02-18T07:21:34.303Z,3.67
2023-02-18T07:26:36.843Z,5.90
2023-02-18T07:31:39.385Z,6.03
2023-02-18T07:36:42.543Z,3.30
2023-02-18T07:41:44.912Z,4.47
2023-02-18T07:46:51.010Z,4.60
2023-02-18T07:51:54.078Z,2.97
2023-02-18T07:56:56.474Z,5.13
2023-02-18T08:01:58.995Z,3.53
2023-02-18T08:07:01.517Z,6.90
2023-02-18T08:12:04.107Z,6.93
2023-02-18T08:17:06.525Z,13.00
2023-02-18T08:22:10.034Z,42.60
2023-02-18T08:27:13.475Z,100.17
2023-02-18T08:32:15.974Z,29.47
2023-02-18T08:37:18.383Z,48.27
2023-02-18T08:42:20.863Z,6.10
2023-02-18T08:48:13.667Z,7.50
2023-02-18T08:52:46.045Z,3.37
2023-02-18T08:57:48.937Z,2.67
2023-02-18T09:02:51.429Z,5.10
2023-02-18T09:07:53.849Z,3.53
2023-02-18T09:12:56.267Z,39.40
2023-02-18T09:17:59.837Z,14.40
2023-02-18T09:23:03.767Z,9.80
2023-02-18T09:28:06.224Z,11.10
2023-02-18T09:33:08.756Z,12.20
2023-02-18T09:38:13.224Z,5.20
2023-02-18T09:43:33.457Z,8.23
2023-02-18T09:48:37.510Z,2.97
2023-02-18T09:53:42.107Z,4.57
2023-02-18T09:58:46.008Z,6.47
2023-02-18T10:03:48.842Z,4.50
2023-02-18T10:08:54.091Z,12.27
2023-02-18T10:13:57.611Z,8.00
2023-02-18T10:19:04.072Z,15.20
2023-02-18T10:24:29.175Z,4.10
2023-02-18T10:29:32.397Z,2.87
2023-02-18T10:34:45.945Z,6.60
2023-02-18T10:40:09.153Z,3.37
2023-02-18T10:45:17.546Z,4.70
2023-02-18T10:50:34.115Z,4.90
2023-02-18T10:55:45.426Z,6.40
2023-02-18T11:00:47.832Z,3.30
2023-02-18T11:05:56.270Z,3.50
2023-02-18T11:10:59.209Z,3.40
2023-02-18T11:16:05.281Z,3.13
2023-02-18T11:21:21.582Z,2.80
2023-02-18T11:26:32.249Z,2.00
2023-02-18T11:31:45.021Z,2.80
2023-02-18T11:36:49.327Z,6.47
2023-02-18T11:41:59.408Z,2.30
2023-02-18T11:47:14.003Z,3.77
2023-02-18T11:52:25.756Z,3.93
2023-02-18T11:57:29.088Z,7.83
2023-02-18T12:02:38.430Z,4.83
2023-02-18T12:07:55.489Z,6.47
2023-02-18T12:13:08.012Z,5.37
2023-02-18T12:18:30.190Z,5.70
2023-02-18T12:23:43.998Z,7.50
2023-02-18T12:28:52.701Z,5.43
2023-02-18T12:34:30.317Z,6.43
2023-02-18T12:39:55.427Z,7.50
2023-02-18T12:45:00.500Z,20.17
2023-02-18T12:50:02.846Z,41.13
2023-02-18T12:55:50.913Z,15.67
2023-02-18T13:01:05.799Z,18.00
2023-02-18T13:06:08.504Z,30.77
2023-02-18T13:11:54.988Z,43.00
2023-02-18T13:17:01.039Z,18.70
2023-02-18T13:22:06.204Z,19.70
2023-02-18T13:27:27.404Z,26.93
2023-02-18T13:32:55.396Z,25.43
2023-02-18T13:38:37.160Z,41.63
2023-02-18T13:43:39.967Z,125.20
2023-02-18T13:48:49.316Z,168.50
2023-02-18T13:54:05.322Z,16.57
2023-02-18T13:59:34.385Z,17.13
2023-02-18T14:04:40.241Z,35.20
2023-02-18T14:09:43.687Z,35.27
2023-02-18T14:14:46.354Z,17.90
2023-02-18T14:20:00.929Z,19.30
2023-02-18T14:25:09.493Z,34.60
2023-02-18T14:30:31.319Z,21.50
2023-02-18T14:35:52.239Z,27.73
2023-02-18T14:41:13.327Z,26.30
2023-02-18T14:46:20.737Z,118.43
2023-02-18T14:51:27.947Z,54.20
2023-02-18T14:56:31.075Z,95.20
2023-02-18T15:01:36.889Z,158.47
2023-02-18T15:06:40.199Z,47.67
2023-02-18T15:11:50.632Z,32.07
2023-02-18T15:16:53.903Z,53.27
2023-02-18T15:21:57.669Z,91.97
2023-02-18T15:27:04.123Z,59.90
2023-02-18T15:32:19.995Z,53.23
2023-02-18T15:37:22.587Z,26.73
2023-02-18T15:42:24.957Z,54.77
2023-02-18T15:47:27.554Z,39.67
2023-02-18T15:52:33.027Z,28.83
2023-02-18T15:57:36.996Z,31.47
2023-02-18T16:02:51.968Z,25.53
2023-02-18T16:08:02.776Z,34.50
2023-02-18T16:13:06.143Z,22.80
2023-02-18T16:18:24.020Z,42.83
2023-02-18T16:23:34.751Z,24.97
2023-02-18T16:28:37.382Z,29.57
2023-02-18T16:33:39.786Z,66.97
2023-02-18T16:38:43.579Z,39.63
2023-02-18T16:43:50.418Z,149.97
2023-02-18T16:48:55.783Z,48.37
2023-02-18T16:53:58.396Z,31.80
2023-02-18T16:59:00.817Z,84.93
2023-02-18T17:04:05.727Z,38.00
2023-02-18T17:09:22.159Z,49.40
2023-02-18T17:14:24.685Z,65.93
2023-02-18T17:19:27.102Z,35.77
2023-02-18T17:24:29.512Z,29.70
2023-02-18T17:29:33.292Z,31.37
2023-02-18T17:34:37.734Z,50.40
2023-02-18T17:39:40.296Z,32.13
2023-02-18T17:44:42.695Z,29.20
2023-02-18T17:49:45.180Z,28.47
2023-02-18T17:54:47.529Z,28.63
2023-02-18T17:59:49.900Z,15.60
2023-02-18T18:04:52.252Z,20.63
2023-02-18T18:09:55.010Z,25.33
2023-02-18T18:14:57.435Z,27.60
2023-02-18T18:19:59.804Z,32.23
2023-02-18T18:25:04.704Z,21.67
2023-02-18T18:30:07.767Z,9.10
2023-02-18T18:35:34.306Z,10.80
2023-02-18T18:40:36.822Z,15.77
2023-02-18T18:45:39.308Z,12.77
2023-02-18T18:50:42.466Z,22.90
2023-02-18T18:55:45.667Z,12.57
2023-02-18T19:00:54.544Z,30.73
2023-02-18T19:05:58.296Z,36.77
2023-02-18T19:11:02.563Z,40.80
2023-02-18T19:16:07.908Z,96.70
2023-02-18T19:21:12.388Z,21.97
2023-02-18T19:26:16.952Z,52.00
2023-02-18T19:31:24.346Z,37.73
2023-02-18T19:36:26.928Z,27.00
2023-02-18T19:41:29.422Z,17.43
2023-02-18T19:46:32.550Z,38.20
2023-02-18T19:51:34.950Z,57.97
2023-02-18T19:56:37.355Z,27.43
2023-02-18T20:01:39.803Z,38.40
2023-02-18T20:06:42.350Z,46.73
2023-02-18T20:11:45.245Z,24.93
2023-02-18T20:16:47.624Z,18.40
2023-02-18T20:21:50.739Z,34.00
2023-02-18T20:26:53.154Z,53.63
2023-02-18T20:31:56.378Z,97.33
2023-02-18T20:36:59.119Z,41.93
2023-02-18T20:42:11.202Z,36.07
2023-02-18T20:47:18.218Z,33.30
2023-02-18T20:52:20.682Z,16.53
2023-02-18T20:57:23.359Z,29.10
2023-02-18T21:02:25.881Z,46.03
2023-02-18T21:07:28.379Z,84.20
2023-02-18T21:12:31.052Z,53.50
2023-02-18T21:17:33.497Z,34.50
2023-02-18T21:22:36.418Z,22.40
2023-02-18T21:27:38.846Z,35.17
2023-02-18T21:32:41.288Z,47.03
2023-02-18T21:37:43.823Z,42.73
2023-02-18T21:42:46.252Z,51.00
2023-02-18T21:47:48.900Z,51.73
2023-02-18T21:52:51.325Z,38.13
2023-02-18T21:57:53.714Z,27.93
2023-02-18T22:02:56.288Z,34.90
2023-02-18T22:07:58.714Z,36.70
2023-02-18T22:13:01.367Z,21.30
2023-02-18T22:18:03.896Z,28.33
2023-02-18T22:23:06.498Z,32.90
2023-02-18T22:28:08.964Z,12.03
2023-02-18T22:33:11.377Z,12.17
2023-02-18T22:38:13.732Z,20.00
2023-02-18T22:43:16.252Z,11.80
2023-02-18T22:48:20.048Z,8.97
2023-02-18T22:53:22.549Z,10.03
2023-02-18T22:58:25.034Z,9.37
2023-02-18T23:03:28.632Z,11.60
2023-02-18T23:08:32.474Z,20.43
2023-02-18T23:13:35.146Z,15.17
2023-02-18T23:18:37.609Z,18.20
2023-02-18T23:23:39.985Z,19.07
2023-02-18T23:28:48.262Z,11.00
2023-02-18T23:33:54.671Z,14.70
2023-02-18T23:38:59.504Z,13.73
2023-02-18T23:44:11.516Z,12.80
2023-02-18T23:49:16.109Z,17.63
2023-02-18T23:54:18.852Z,16.60
2023-02-18T23:59:21.472Z,12.60
